createdAt,value
2022-08-07T00:07:59.573Z,97.90
2022-08-07T00:13:00.519Z,94.40
2022-08-07T00:15:37.877Z,94.50
2022-08-07T00:35:35.149Z,99.90
2022-08-07T00:40:38.963Z,94.40
2022-08-07T00:43:58.881Z,94.70
2022-08-07T00:46:02.029Z,94.90
2022-08-07T00:48:31.836Z,94.50
2022-08-07T00:58:47.273Z,95.40
2022-08-07T01:01:17.669Z,95.60
2022-08-07T01:19:19.662Z,95.30
2022-08-07T01:21:53.163Z,95.70
2022-08-07T01:26:54.324Z,95.90
2022-08-07T01:34:31.998Z,95.50
2022-08-07T01:37:04.385Z,95.50
2022-08-07T01:50:47.779Z,95.90
2022-08-07T01:53:21.755Z,96.30
2022-08-07T01:56:07.375Z,96.40
2022-08-07T01:58:49.922Z,96.70
2022-08-07T02:01:59.677Z,96.70
2022-08-07T02:04:18.729Z,96.70
2022-08-07T02:06:56.220Z,96.70
2022-08-07T02:09:51.885Z,96.50
2022-08-07T02:12:19.528Z,96.50
2022-08-07T02:14:58.430Z,96.40
2022-08-07T02:20:10.086Z,97.10
2022-08-07T02:22:47.982Z,97.20
2022-08-07T02:26:11.384Z,97.60
2022-08-07T02:28:14.292Z,97.10
2022-08-07T02:30:53.749Z,96.90
2022-08-07T02:38:38.740Z,96.40
2022-08-07T02:41:07.946Z,95.90
2022-08-07T02:43:39.778Z,95.50
2022-08-07T02:46:08.980Z,95.40
2022-08-07T02:51:28.792Z,95.60
2022-08-07T02:54:03.045Z,96.10
2022-08-07T02:56:33.131Z,95.80
2022-08-07T02:59:04.442Z,95.60
2022-08-07T03:04:14.012Z,95.90
2022-08-07T03:06:44.688Z,95.90
2022-08-07T03:12:08.105Z,96.60
2022-08-07T03:14:52.191Z,96.20
2022-08-07T03:22:29.640Z,96.30
2022-08-07T03:25:01.679Z,96.20
2022-08-07T03:27:59.712Z,96.00
2022-08-07T03:30:26.112Z,96.30
2022-08-07T03:32:58.925Z,96.10
2022-08-07T03:35:37.903Z,96.20
2022-08-07T03:56:32.696Z,96.90
2022-08-07T03:59:08.385Z,97.10
2022-08-07T04:01:43.271Z,97.10
2022-08-07T04:06:50.829Z,97.60
2022-08-07T04:09:23.009Z,97.80
2022-08-07T04:17:20.121Z,98.10
2022-08-07T04:38:09.155Z,96.30
2022-08-07T04:40:51.976Z,97.40
2022-08-07T04:44:09.632Z,97.90
2022-08-07T04:49:17.668Z,97.80
2022-08-07T04:54:30.048Z,97.80
2022-08-07T05:02:59.003Z,98.00
2022-08-07T05:05:52.858Z,99.90
2022-08-07T05:09:00.924Z,99.20
2022-08-07T05:11:58.269Z,98.20
2022-08-07T05:14:55.986Z,99.90
2022-08-07T05:17:52.900Z,98.40
2022-08-07T05:20:11.622Z,99.90
2022-08-07T05:22:43.250Z,98.50
2022-08-07T05:25:25.753Z,98.50
2022-08-07T05:28:16.231Z,98.60
2022-08-07T05:30:47.226Z,98.50
2022-08-07T05:33:15.678Z,98.80
2022-08-07T05:35:45.628Z,99.20
2022-08-07T05:41:11.952Z,99.00
2022-08-07T05:43:49.817Z,99.10
2022-08-07T05:46:29.537Z,99.50
2022-08-07T05:48:59.255Z,99.50
2022-08-07T05:51:31.718Z,99.70
2022-08-07T05:59:21.089Z,99.90
2022-08-07T06:01:54.052Z,99.90
2022-08-07T06:04:26.264Z,99.90
2022-08-07T06:07:03.891Z,99.90
2022-08-07T06:10:03.721Z,99.60
2022-08-07T06:15:05.241Z,99.90
2022-08-07T06:20:12.534Z,98.60
2022-08-07T06:23:02.128Z,98.60
2022-08-07T06:38:58.999Z,98.90
2022-08-07T06:42:02.305Z,98.50
2022-08-07T06:44:51.261Z,98.40
2022-08-07T06:52:36.496Z,98.20
2022-08-07T06:55:33.577Z,99.60
2022-08-07T06:58:09.559Z,97.70
2022-08-07T07:00:45.898Z,97.00
2022-08-07T07:03:17.097Z,97.70
2022-08-07T07:06:05.362Z,97.60
2022-08-07T07:08:34.965Z,99.90
2022-08-07T07:16:31.526Z,97.40
2022-08-07T07:19:54.581Z,97.00
2022-08-07T07:22:05.014Z,96.90
2022-08-07T07:24:43.172Z,96.60
2022-08-07T07:27:27.804Z,96.40
2022-08-07T07:30:08.830Z,96.40
2022-08-07T07:32:39.253Z,96.10
2022-08-07T07:35:09.923Z,99.90
2022-08-07T07:37:49.590Z,96.00
2022-08-07T07:40:26.141Z,96.70
2022-08-07T07:42:55.604Z,96.50
2022-08-07T07:46:37.922Z,96.30
2022-08-07T07:48:35.429Z,96.30
2022-08-07T07:51:07.551Z,96.30
2022-08-07T07:53:52.155Z,96.50
2022-08-07T07:56:30.230Z,95.90
2022-08-07T07:59:01.991Z,95.90
2022-08-07T08:02:03.464Z,95.70
2022-08-07T08:04:25.512Z,95.60
2022-08-07T08:09:25.117Z,95.60
2022-08-07T08:12:02.102Z,95.50
2022-08-07T08:14:36.700Z,99.90
2022-08-07T08:17:56.615Z,99.90
2022-08-07T08:20:22.098Z,94.90
2022-08-07T08:23:11.091Z,95.10
2022-08-07T08:26:03.330Z,94.90
2022-08-07T08:28:37.662Z,94.60
2022-08-07T08:31:13.820Z,94.70
2022-08-07T08:36:30.231Z,94.90
2022-08-07T08:39:01.925Z,94.80
2022-08-07T08:41:57.218Z,93.90
2022-08-07T08:44:44.627Z,99.90
2022-08-07T08:47:52.784Z,93.40
2022-08-07T08:50:35.312Z,94.00
2022-08-07T08:53:13.806Z,94.10
2022-08-07T08:55:59.661Z,99.90
2022-08-07T08:58:59.924Z,99.90
2022-08-07T09:01:59.503Z,92.80
2022-08-07T09:04:55.412Z,92.30
2022-08-07T09:08:02.774Z,95.80
2022-08-07T09:10:47.252Z,94.70
2022-08-07T09:16:24.458Z,91.50
2022-08-07T09:24:59.197Z,94.00
2022-08-07T09:27:59.812Z,99.90
2022-08-07T09:30:49.707Z,99.90
2022-08-07T09:36:27.021Z,91.00
2022-08-07T09:39:53.205Z,91.10
2022-08-07T09:42:25.232Z,94.40
2022-08-07T09:47:26.254Z,98.60
2022-08-07T09:48:56.174Z,79.80
2022-08-07T09:52:16.586Z,85.20
2022-08-07T09:54:45.123Z,90.90
2022-08-07T10:08:57.670Z,73.60
2022-08-07T10:12:13.294Z,72.10
2022-08-07T10:22:45.331Z,92.40
2022-08-07T10:25:43.022Z,68.20
2022-08-07T10:28:49.626Z,91.80
2022-08-07T10:36:56.637Z,92.70
2022-08-07T10:42:41.882Z,93.10
2022-08-07T10:45:59.021Z,70.30
2022-08-07T10:51:57.705Z,73.00
2022-08-07T10:54:17.404Z,71.00
2022-08-07T10:57:29.485Z,72.20
2022-08-07T11:00:36.986Z,88.60
2022-08-07T11:03:23.410Z,69.60
2022-08-07T11:08:46.009Z,70.10
2022-08-07T11:11:20.913Z,74.80
2022-08-07T11:14:43.663Z,71.50
2022-08-07T11:17:01.865Z,68.50
2022-08-07T11:19:40.169Z,77.60
2022-08-07T11:22:32.384Z,71.20
2022-08-07T11:28:07.936Z,69.20
2022-08-07T11:31:02.718Z,68.00
2022-08-07T11:33:59.267Z,90.60
2022-08-07T11:36:56.654Z,65.80
2022-08-07T11:45:35.881Z,67.50
2022-08-07T11:48:29.582Z,64.60
2022-08-07T11:51:09.741Z,89.40
2022-08-07T11:54:00.882Z,89.10
2022-08-07T11:56:56.171Z,89.30
2022-08-07T12:00:11.670Z,64.70
2022-08-07T12:05:41.241Z,65.20
2022-08-07T12:08:25.675Z,88.60
2022-08-07T12:14:13.358Z,64.40
2022-08-07T12:16:47.978Z,64.40
2022-08-07T12:19:56.521Z,72.30
2022-08-07T12:23:09.078Z,66.60
2022-08-07T12:26:05.472Z,65.30
2022-08-07T12:28:59.118Z,64.00
2022-08-07T12:34:18.409Z,64.70
2022-08-07T12:36:50.034Z,64.80
2022-08-07T12:39:44.040Z,64.90
2022-08-07T12:42:13.097Z,64.90
2022-08-07T12:44:45.121Z,64.10
2022-08-07T12:47:49.292Z,63.90
2022-08-07T12:50:34.141Z,64.40
2022-08-07T12:53:22.375Z,64.30
2022-08-07T12:56:18.524Z,84.00
2022-08-07T12:58:56.968Z,67.30
2022-08-07T13:01:32.640Z,90.30
2022-08-07T13:04:33.983Z,70.30
2022-08-07T13:08:13.900Z,64.60
2022-08-07T13:11:01.372Z,71.10
2022-08-07T13:16:46.763Z,69.20
2022-08-07T13:25:28.796Z,62.60
2022-08-07T13:28:18.289Z,61.00
2022-08-07T13:31:02.026Z,62.50
2022-08-07T13:34:31.189Z,62.60
2022-08-07T13:36:41.246Z,62.50
2022-08-07T13:39:49.306Z,63.50
2022-08-07T13:42:14.673Z,64.20
2022-08-07T13:44:55.221Z,63.30
2022-08-07T13:48:06.304Z,63.60
2022-08-07T13:50:34.785Z,61.90
2022-08-07T13:53:21.880Z,62.70
2022-08-07T13:55:54.786Z,62.70
2022-08-07T13:58:56.135Z,62.40
2022-08-07T14:01:26.865Z,61.30
2022-08-07T14:04:05.244Z,62.60
2022-08-07T14:06:38.448Z,62.50
2022-08-07T14:09:16.961Z,62.70
2022-08-07T14:12:04.870Z,60.90
2022-08-07T14:14:48.601Z,59.80
2022-08-07T14:18:12.671Z,59.70
2022-08-07T14:20:40.693Z,62.70
2022-08-07T14:23:31.165Z,86.40
2022-08-07T14:26:28.654Z,61.00
2022-08-07T14:29:04.377Z,60.30
2022-08-07T14:34:29.233Z,59.90
2022-08-07T14:37:01.942Z,58.70
2022-08-07T14:40:14.541Z,59.00
2022-08-07T14:42:32.541Z,59.60
2022-08-07T14:47:53.051Z,58.70
2022-08-07T14:53:16.490Z,59.00
2022-08-07T14:56:06.680Z,58.90
2022-08-07T14:58:45.157Z,57.90
2022-08-07T15:01:22.741Z,68.50
2022-08-07T15:06:40.349Z,84.10
2022-08-07T15:09:57.559Z,59.90
2022-08-07T15:12:25.885Z,84.20
2022-08-07T15:15:21.392Z,60.10
2022-08-07T15:17:57.313Z,84.10
2022-08-07T15:20:35.729Z,67.60
2022-08-07T15:25:15.979Z,56.10
2022-08-07T15:26:21.123Z,81.90
2022-08-07T15:28:58.398Z,65.10
2022-08-07T15:32:02.023Z,58.20
2022-08-07T15:34:50.548Z,58.10
2022-08-07T15:37:27.980Z,59.00
2022-08-07T15:39:59.022Z,79.40
2022-08-07T15:45:55.673Z,57.80
2022-08-07T15:48:36.581Z,82.70
2022-08-07T15:54:13.970Z,56.00
2022-08-07T15:56:42.674Z,56.60
2022-08-07T15:59:16.468Z,82.00
2022-08-07T16:02:02.241Z,57.70
2022-08-07T16:04:33.517Z,73.80
2022-08-07T16:07:05.050Z,56.70
2022-08-07T16:09:57.200Z,70.10
2022-08-07T16:13:01.264Z,57.10
2022-08-07T16:15:57.965Z,58.80
2022-08-07T16:18:49.410Z,81.00
2022-08-07T16:22:04.323Z,75.80
2022-08-07T16:24:38.487Z,84.60
2022-08-07T16:27:39.931Z,58.10
2022-08-07T16:30:31.656Z,58.00
2022-08-07T16:34:02.030Z,83.30
2022-08-07T16:36:31.146Z,57.50
2022-08-07T16:39:33.532Z,57.70
2022-08-07T16:42:31.834Z,60.80
2022-08-07T16:46:21.400Z,58.00
2022-08-07T16:48:34.505Z,82.50
2022-08-07T16:51:57.642Z,55.80
2022-08-07T16:54:34.733Z,79.10
2022-08-07T16:57:16.093Z,56.70
2022-08-07T17:00:14.931Z,57.40
2022-08-07T17:03:59.365Z,56.10
2022-08-07T17:07:02.965Z,80.90
2022-08-07T17:10:08.153Z,55.40
2022-08-07T17:12:54.479Z,55.40
2022-08-07T17:15:50.684Z,81.70
2022-08-07T17:18:46.071Z,56.20
2022-08-07T17:21:22.995Z,71.50
2022-08-07T17:24:02.020Z,82.10
2022-08-07T17:27:00.017Z,74.00
2022-08-07T17:32:52.034Z,82.90
2022-08-07T17:35:50.809Z,58.20
2022-08-07T17:38:33.414Z,68.00
2022-08-07T17:42:01.695Z,82.70
2022-08-07T17:44:33.943Z,58.40
2022-08-07T17:47:58.678Z,83.40
2022-08-07T17:53:06.829Z,58.00
2022-08-07T17:56:06.828Z,77.30
2022-08-07T17:58:46.209Z,58.70
2022-08-07T18:01:28.892Z,67.40
2022-08-07T18:04:24.640Z,58.70
2022-08-07T18:07:28.525Z,59.00
2022-08-07T18:10:29.001Z,59.90
2022-08-07T18:15:56.757Z,59.80
2022-08-07T18:18:44.995Z,84.60
2022-08-07T18:21:57.825Z,68.40
2022-08-07T18:24:35.314Z,59.90
2022-08-07T18:30:04.263Z,59.40
2022-08-07T18:33:15.307Z,84.30
2022-08-07T18:36:08.137Z,66.70
2022-08-07T18:40:05.422Z,85.10
2022-08-07T18:42:08.398Z,85.80
2022-08-07T18:45:40.299Z,85.70
2022-08-07T18:48:01.079Z,59.60
2022-08-07T18:50:45.895Z,59.40
2022-08-07T18:53:36.553Z,86.10
2022-08-07T18:56:15.506Z,60.20
2022-08-07T19:02:19.190Z,60.50
2022-08-07T19:04:58.131Z,60.50
2022-08-07T19:10:31.592Z,76.90
2022-08-07T19:13:21.507Z,62.50
2022-08-07T19:16:05.300Z,62.50
2022-08-07T19:19:06.887Z,60.80
2022-08-07T19:22:11.230Z,62.90
2022-08-07T19:24:48.024Z,71.40
2022-08-07T19:28:57.947Z,62.50
2022-08-07T19:31:05.544Z,70.30
2022-08-07T19:33:13.256Z,63.40
2022-08-07T19:35:46.132Z,88.80
2022-08-07T19:38:17.791Z,63.50
2022-08-07T19:40:50.450Z,62.90
2022-08-07T19:43:44.882Z,63.10
2022-08-07T19:46:17.772Z,62.90
2022-08-07T19:48:53.612Z,63.10
2022-08-07T19:51:24.371Z,63.30
2022-08-07T19:54:31.938Z,67.00
2022-08-07T19:58:00.891Z,63.80
2022-08-07T19:59:57.129Z,63.80
2022-08-07T20:02:39.136Z,62.40
2022-08-07T20:05:09.801Z,64.40
2022-08-07T20:07:47.498Z,63.60
2022-08-07T20:10:37.235Z,64.70
2022-08-07T20:13:23.079Z,65.10
2022-08-07T20:15:53.714Z,65.20
2022-08-07T20:18:32.721Z,83.70
2022-08-07T20:21:14.244Z,65.70
2022-08-07T20:24:01.096Z,66.30
2022-08-07T20:26:38.710Z,67.70
2022-08-07T20:29:48.146Z,69.00
2022-08-07T20:32:11.570Z,70.30
2022-08-07T20:34:57.478Z,71.80
2022-08-07T20:37:33.781Z,72.90
2022-08-07T20:40:05.279Z,73.50
2022-08-07T20:42:56.430Z,73.50
2022-08-07T20:48:28.717Z,70.20
2022-08-07T20:51:00.126Z,72.00
2022-08-07T20:56:16.540Z,72.10
2022-08-07T20:58:58.622Z,73.60
2022-08-07T21:04:22.100Z,73.50
2022-08-07T21:06:53.480Z,72.70
2022-08-07T21:09:24.246Z,74.30
2022-08-07T21:11:57.201Z,76.40
2022-08-07T21:14:33.599Z,77.60
2022-08-07T21:18:01.978Z,79.40
2022-08-07T21:20:04.648Z,80.60
2022-08-07T21:22:51.367Z,96.20
2022-08-07T21:25:30.306Z,94.90
2022-08-07T21:28:13.580Z,78.40
2022-08-07T21:31:05.974Z,79.90
2022-08-07T21:33:43.280Z,96.70
2022-08-07T21:36:49.933Z,81.40
2022-08-07T21:39:54.960Z,97.50
2022-08-07T21:42:48.504Z,82.60
2022-08-07T21:46:09.455Z,97.60
2022-08-07T21:48:41.504Z,85.60
2022-08-07T21:51:54.975Z,83.90
2022-08-07T22:00:05.814Z,82.10
2022-08-07T22:02:53.395Z,84.60
2022-08-07T22:05:44.242Z,84.50
2022-08-07T22:13:14.358Z,85.60
2022-08-07T22:16:43.041Z,86.70
2022-08-07T22:26:30.264Z,85.50
2022-08-07T22:29:13.907Z,87.50
2022-08-07T22:32:06.106Z,88.00
2022-08-07T22:35:00.012Z,87.60
2022-08-07T22:38:03.155Z,87.20
2022-08-07T22:40:53.189Z,92.50
2022-08-07T22:43:34.101Z,89.00
2022-08-07T22:47:03.750Z,99.90
2022-08-07T22:49:37.819Z,99.90
2022-08-07T22:52:37.467Z,89.30
2022-08-07T22:58:04.796Z,89.40
2022-08-07T23:01:06.288Z,89.90
2022-08-07T23:03:58.549Z,90.30
2022-08-07T23:06:51.359Z,90.10
2022-08-07T23:10:00.624Z,86.90
2022-08-07T23:12:34.562Z,90.10
2022-08-07T23:16:05.461Z,91.70
2022-08-07T23:18:35.430Z,90.20
2022-08-07T23:21:51.673Z,90.50
2022-08-07T23:24:56.081Z,88.00
2022-08-07T23:27:34.748Z,96.50
2022-08-07T23:30:39.637Z,99.90
2022-08-07T23:38:54.700Z,93.90
2022-08-07T23:41:33.887Z,90.10
2022-08-07T23:44:37.597Z,90.20
2022-08-07T23:47:10.975Z,91.70
2022-08-07T23:53:05.193Z,91.80
2022-08-07T23:55:53.348Z,90.70
2022-08-07T23:58:38.547Z,92.30
